Archiv-/Tagesdaten

--Timestamp---	Temp	Chill	HIndex	Humid	Dewpt	 Wind 	HiWind	WindDir	Rain 	Barom	Solar	 ET  	 UV 
--------------	----	-----	------	-----	-----	------	------	-------	-----	-----	-----	-----	----
20100125 00:00	-5.1	-5.1	-5.1	88	-6.7	3	6	112	0.0	1025.7	0	0.000	0.0
20100125 00:05	-5.1	-5.1	-5.1	88	-6.8	3	8	90	0.0	1025.6	0	0.000	0.0
20100125 00:10	-5.1	-5.1	-5.1	88	-6.8	3	8	135	0.0	1025.5	0	0.000	0.0
20100125 00:15	-5.1	-8.1	-5.1	88	-6.8	6	14	135	0.0	1025.4	0	0.000	0.0
20100125 00:20	-5.1	-8.7	-5.1	88	-6.8	8	11	112	0.0	1025.4	0	0.000	0.0
20100125 00:25	-5.2	-8.8	-5.2	88	-6.8	8	11	135	0.0	1025.4	0	0.000	0.0
20100125 00:30	-5.2	-8.8	-5.2	88	-6.8	8	11	112	0.0	1025.4	0	0.000	0.0
20100125 00:35	-5.2	-8.1	-5.2	88	-6.8	6	11	112	0.0	1025.4	0	0.000	0.0
20100125 00:40	-5.2	-5.2	-5.2	88	-6.8	5	11	112	0.0	1025.4	0	0.000	0.0
20100125 00:45	-5.1	-5.1	-5.1	88	-6.8	5	8	135	0.0	1025.4	0	0.000	0.0
20100125 00:50	-5.1	-5.1	-5.1	88	-6.8	5	8	90	0.0	1025.5	0	0.000	0.0
20100125 00:55	-5.1	-5.1	-5.1	88	-6.7	3	8	112	0.0	1025.5	0	0.000	0.0
20100125 01:00	-5.1	-8.1	-5.1	88	-6.8	6	10	112	0.0	1025.5	0	0.000	0.0
20100125 01:05	-5.1	-8.1	-5.1	88	-6.8	6	10	112	0.0	913.8	0	0.000	0.0
20100125 01:10	-5.1	-5.1	-5.1	88	-6.8	5	8	135	0.0	913.8	0	0.000	0.0
20100125 01:15	-5.1	-5.1	-5.1	88	-6.7	5	8	112	0.0	913.8	0	0.000	0.0
20100125 01:20	-5.1	-5.1	-5.1	88	-6.7	5	8	112	0.0	913.8	0	0.000	0.0
20100125 01:25	-5.1	-5.1	-5.1	88	-6.7	5	8	112	0.0	1025.5	0	0.000	0.0
20100125 01:30	-5.1	-8.0	-5.1	87	-6.9	6	10	112	0.0	1025.5	0	0.000	0.0
20100125 01:35	-5.1	-5.1	-5.1	88	-6.7	5	8	135	0.0	1025.5	0	0.000	0.0
20100125 01:40	-5.1	-5.1	-5.1	88	-6.7	5	10	135	0.0	1025.4	0	0.000	0.0
20100125 01:45	-5.1	-5.1	-5.1	88	-6.7	3	8	112	0.0	1025.4	0	0.000	0.0
20100125 01:50	-5.1	-5.1	-5.1	88	-6.7	3	8	112	0.0	1025.5	0	0.000	0.0
20100125 01:55	-5.0	-5.0	-5.0	88	-6.7	3	6	112	0.0	1025.5	0	0.000	0.0
20100125 02:00	-5.1	-5.1	-5.1	87	-6.9	3	8	90	0.0	1025.5	0	0.000	0.0
20100125 02:05	-5.1	-5.1	-5.1	87	-6.9	5	10	112	0.0	1025.6	0	0.000	0.0
20100125 02:10	-5.1	-5.1	-5.1	87	-6.9	5	10	112	0.0	1025.5	0	0.000	0.0
20100125 02:15	-5.1	-8.0	-5.1	87	-6.9	6	11	112	0.0	1025.5	0	0.000	0.0
20100125 02:20	-5.1	-8.7	-5.1	87	-6.9	8	10	135	0.0	1025.6	0	0.000	0.0
20100125 02:25	-5.1	-5.1	-5.1	87	-6.9	5	10	135	0.0	1025.6	0	0.000	0.0
20100125 02:30	-5.1	-5.1	-5.1	87	-6.9	5	8	135	0.0	1025.6	0	0.000	0.0
20100125 02:35	-5.1	-8.0	-5.1	87	-6.9	6	10	135	0.0	1025.5	0	0.000	0.0
20100125 02:40	-5.1	-8.1	-5.1	87	-6.9	6	10	112	0.0	1025.6	0	0.000	0.0
20100125 02:45	-5.1	-5.1	-5.1	87	-6.9	5	8	135	0.0	1025.4	0	0.000	0.0
20100125 02:50	-5.1	-8.1	-5.1	87	-6.9	6	11	112	0.0	1025.4	0	0.000	0.0
20100125 02:55	-5.1	-8.1	-5.1	87	-6.9	6	10	135	0.0	1025.4	0	0.000	0.0
20100125 03:00	-5.1	-5.1	-5.1	88	-6.8	5	8	135	0.0	1025.4	0	0.000	0.0
20100125 03:05	-5.1	-5.1	-5.1	88	-6.7	3	6	135	0.0	1025.3	0	0.000	0.0
20100125 03:10	-5.1	-5.1	-5.1	88	-6.7	3	8	158	0.0	1025.3	0	0.000	0.0
20100125 03:15	-5.1	-5.1	-5.1	88	-6.7	5	10	135	0.0	1025.2	0	0.000	0.0
20100125 03:20	-5.1	-5.1	-5.1	88	-6.8	5	8	135	0.0	1025.1	0	0.000	0.0
20100125 03:25	-5.1	-5.1	-5.1	88	-6.8	5	10	112	0.0	1025.2	0	0.000	0.0
20100125 03:30	-5.2	-8.1	-5.2	88	-6.8	6	11	112	0.0	1025.2	0	0.000	0.0
20100125 03:35	-5.2	-5.2	-5.2	88	-6.8	5	10	112	0.0	1025.3	0	0.000	0.0
20100125 03:40	-5.2	-8.1	-5.2	88	-6.8	6	10	135	0.0	1025.4	0	0.000	0.0
20100125 03:45	-5.2	-5.2	-5.2	88	-6.8	5	10	135	0.0	1025.4	0	0.000	0.0
20100125 03:50	-5.2	-5.2	-5.2	88	-6.8	3	6	135	0.0	1025.3	0	0.000	0.0
20100125 03:55	-5.2	-5.2	-5.2	88	-6.8	5	8	180	0.0	1025.3	0	0.000	0.0
20100125 04:00	-5.2	-5.2	-5.2	88	-6.8	3	10	180	0.0	1025.4	0	0.000	0.0
20100125 04:05	-5.1	-5.1	-5.1	88	-6.8	5	8	158	0.0	1025.5	0	0.000	0.0
20100125 04:10	-5.2	-5.2	-5.2	88	-6.8	5	8	135	0.0	1025.5	0	0.000	0.0
20100125 04:15	-5.2	-5.2	-5.2	88	-6.8	5	8	135	0.0	1025.5	0	0.000	0.0
20100125 04:20	-5.2	-8.2	-5.2	89	-6.7	6	11	112	0.0	1025.5	0	0.000	0.0
20100125 04:25	-5.2	-5.2	-5.2	89	-6.7	3	8	135	0.0	1025.5	0	0.000	0.0
20100125 04:30	-5.2	-5.2	-5.2	89	-6.7	3	8	135	0.0	1025.6	0	0.000	0.0
20100125 04:35	-5.2	-5.2	-5.2	89	-6.7	5	8	135	0.0	1025.5	0	0.000	0.0
20100125 04:40	-5.2	-5.2	-5.2	89	-6.7	2	6	158	0.0	1025.6	0	0.000	0.0
20100125 04:45	-5.1	-5.1	-5.1	89	-6.6	3	10	158	0.0	1025.6	0	0.000	0.0
20100125 04:50	-5.1	-5.1	-5.1	89	-6.6	5	8	112	0.0	1025.6	0	0.000	0.0
20100125 04:55	-5.1	-5.1	-5.1	89	-6.6	3	8	135	0.0	1025.7	0	0.000	0.0
20100125 05:00	-5.1	-5.1	-5.1	89	-6.6	3	8	135	0.0	1025.7	0	0.000	0.0
20100125 05:05	-5.2	-5.2	-5.2	89	-6.7	5	8	135	0.0	1025.7	0	0.000	0.0
20100125 05:10	-5.2	-8.1	-5.2	89	-6.7	6	11	112	0.0	1025.7	0	0.000	0.0
20100125 05:15	-5.2	-8.2	-5.2	89	-6.7	6	10	135	0.0	1025.8	0	0.000	0.0
20100125 05:20	-5.2	-8.2	-5.2	89	-6.7	6	10	135	0.0	1025.8	0	0.000	0.0
20100125 05:25	-5.2	-5.2	-5.2	89	-6.7	5	11	135	0.0	1025.8	0	0.000	0.0
20100125 05:30	-5.2	-5.2	-5.2	89	-6.7	5	10	112	0.0	1025.8	0	0.000	0.0
20100125 05:35	-5.2	-8.2	-5.2	89	-6.7	6	10	112	0.0	1025.7	0	0.000	0.0
20100125 05:40	-5.2	-5.2	-5.2	89	-6.7	5	10	135	0.0	1025.6	0	0.000	0.0
20100125 05:45	-5.2	-8.1	-5.2	89	-6.7	6	10	112	0.0	1025.6	0	0.000	0.0
20100125 05:50	-5.2	-8.9	-5.2	89	-6.7	8	11	135	0.0	1025.6	0	0.000	0.0
20100125 05:55	-5.2	-5.2	-5.2	89	-6.7	5	10	135	0.0	1025.5	0	0.000	0.0
20100125 06:00	-5.2	-8.1	-5.2	89	-6.7	6	14	135	0.0	1025.6	0	0.000	0.0
20100125 06:05	-5.1	-5.1	-5.1	89	-6.6	3	8	180	0.0	1025.7	0	0.000	0.0
20100125 06:10	-5.1	-5.1	-5.1	89	-6.6	3	8	135	0.0	1025.7	0	0.000	0.0
20100125 06:15	-5.1	-5.1	-5.1	89	-6.6	5	8	158	0.0	1025.7	0	0.000	0.0
20100125 06:20	-5.1	-5.1	-5.1	89	-6.6	5	8	158	0.0	1025.7	0	0.000	0.0
20100125 06:25	-5.0	-5.0	-5.0	89	-6.5	5	10	158	0.0	1025.7	0	0.000	0.0
20100125 06:30	-5.0	-8.0	-5.0	89	-6.5	6	14	135	0.0	1025.7	0	0.000	0.0
20100125 06:35	-5.0	-8.0	-5.0	89	-6.5	6	11	112	0.0	1025.7	0	0.000	0.0
20100125 06:40	-5.0	-5.0	-5.0	89	-6.5	5	11	112	0.0	1025.7	0	0.000	0.0
20100125 06:45	-5.0	-5.0	-5.0	89	-6.5	5	8	135	0.0	1025.7	0	0.000	0.0
20100125 06:50	-5.1	-8.0	-5.1	89	-6.6	6	11	112	0.0	1025.8	0	0.000	0.0
20100125 06:55	-5.0	-5.0	-5.0	89	-6.5	5	10	135	0.0	1025.8	0	0.000	0.0
20100125 07:00	-5.0	-5.0	-5.0	89	-6.5	5	10	112	0.0	1025.8	0	0.000	0.0
20100125 07:05	-4.9	-4.9	-4.9	89	-6.5	5	11	135	0.0	1025.9	0	0.000	0.0
20100125 07:10	-4.9	-4.9	-4.9	89	-6.5	5	8	112	0.0	1025.9	0	0.000	0.0
20100125 07:15	-4.9	-4.9	-4.9	89	-6.5	3	6	135	0.0	1026.0	0	0.000	0.0
20100125 07:20	-4.9	-4.9	-4.9	89	-6.4	3	8	135	0.0	1026.0	0	0.000	0.0
20100125 07:25	-4.8	-4.8	-4.8	89	-6.4	3	8	135	0.0	1026.0	0	0.000	0.0
20100125 07:30	-4.8	-4.8	-4.8	89	-6.4	3	6	112	0.0	1026.1	0	0.000	0.0
20100125 07:35	-4.8	-4.8	-4.8	89	-6.3	3	6	112	0.0	1026.1	0	0.000	0.0
20100125 07:40	-4.8	-4.8	-4.8	89	-6.3	5	10	112	0.0	1026.1	0	0.000	0.0
20100125 07:45	-4.8	-4.8	-4.8	89	-6.3	5	6	135	0.0	1026.2	0	0.000	0.0
20100125 07:50	-4.8	-4.8	-4.8	89	-6.3	3	6	135	0.0	1026.3	0	0.000	0.0
20100125 07:55	-4.8	-7.7	-4.8	89	-6.3	6	11	135	0.0	1026.3	0	0.000	0.0
20100125 08:00	-4.8	-4.8	-4.8	88	-6.5	5	10	112	0.0	1026.5	0	0.000	0.0
20100125 08:05	-4.8	-4.8	-4.8	88	-6.5	5	8	112	0.0	1026.5	0	0.000	0.0
20100125 08:10	-4.7	-4.7	-4.7	88	-6.4	5	8	112	0.0	1026.6	0	0.000	0.0
20100125 08:15	-4.7	-4.7	-4.7	88	-6.4	3	6	135	0.0	1026.5	0	0.000	0.0
20100125 08:20	-4.7	-4.7	-4.7	88	-6.3	3	6	158	0.0	1026.5	3	0.000	0.0
20100125 08:25	-4.6	-4.6	-4.6	88	-6.3	3	10	158	0.0	1026.6	6	0.000	0.0
20100125 08:30	-4.6	-4.6	-4.6	88	-6.3	5	8	112	0.0	1026.6	7	0.000	0.0
20100125 08:35	-4.6	-4.6	-4.6	88	-6.3	5	8	112	0.0	1026.7	8	0.000	0.0
20100125 08:40	-4.6	-4.6	-4.6	88	-6.3	5	8	135	0.0	1026.8	11	0.000	0.0
20100125 08:45	-4.6	-4.6	-4.6	88	-6.2	5	8	135	0.0	1026.8	12	0.000	0.0
20100125 08:50	-4.5	-4.5	-4.5	88	-6.2	5	8	135	0.0	1026.9	16	0.000	0.0
20100125 08:55	-4.5	-4.5	-4.5	89	-6.0	3	10	135	0.0	1026.9	19	0.000	0.0
20100125 09:00	-4.4	-4.4	-4.4	88	-6.1	3	10	135	0.0	1026.9	20	0.000	0.0
20100125 09:05	-4.4	-4.4	-4.4	88	-6.1	3	6	158	0.0	1027.0	20	0.000	0.0
20100125 09:10	-4.3	-4.3	-4.3	88	-6.0	5	6	158	0.0	1027.0	26	0.000	0.0
20100125 09:15	-4.3	-4.3	-4.3	88	-6.0	5	8	158	0.0	1027.0	29	0.000	0.0
20100125 09:20	-4.3	-4.3	-4.3	88	-6.0	5	8	158	0.0	1027.0	32	0.000	0.0
20100125 09:25	-4.3	-4.3	-4.3	88	-6.0	5	10	158	0.0	1027.0	45	0.000	0.0
20100125 09:30	-4.3	-7.1	-4.3	88	-6.0	6	10	112	0.0	1027.1	53	0.000	0.0
20100125 09:35	-4.3	-4.3	-4.3	88	-6.0	5	8	135	0.0	1027.2	48	0.000	0.0
20100125 09:40	-4.2	-4.2	-4.2	88	-5.9	5	8	112	0.0	1027.1	48	0.000	0.0
20100125 09:45	-4.1	-4.1	-4.1	88	-5.8	5	8	135	0.0	1027.1	45	0.000	0.0
20100125 09:50	-4.1	-6.9	-4.1	88	-5.7	6	10	135	0.0	1027.1	39	0.000	0.0
20100125 09:55	-4.1	-4.1	-4.1	88	-5.8	5	10	112	0.0	1027.2	46	0.000	0.0
20100125 10:00	-4.1	-4.1	-4.1	88	-5.7	3	8	112	0.0	1027.1	50	0.025	0.0
20100125 10:05	-4.0	-4.0	-4.0	88	-5.7	5	8	135	0.0	1027.2	59	0.000	0.0
20100125 10:10	-3.9	-3.9	-3.9	88	-5.6	5	6	135	0.0	1027.2	60	0.000	0.0
20100125 10:15	-3.9	-3.9	-3.9	87	-5.8	5	8	135	0.0	1027.2	63	0.000	0.0
20100125 10:20	-3.8	-3.8	-3.8	88	-5.5	5	8	135	0.0	1027.2	63	0.000	0.0
20100125 10:25	-3.8	-3.8	-3.8	88	-5.5	3	10	135	0.0	1027.3	56	0.000	0.0
20100125 10:30	-3.7	-3.7	-3.7	87	-5.5	3	8	135	0.0	1027.4	57	0.000	0.0
20100125 10:35	-3.7	-3.7	-3.7	87	-5.5	5	10	158	0.0	1027.4	61	0.000	0.0
20100125 10:40	-3.6	-6.4	-3.6	87	-5.5	6	8	112	0.0	1027.4	74	0.000	0.0
20100125 10:45	-3.7	-3.7	-3.7	87	-5.5	5	8	112	0.0	1027.4	76	0.000	0.0
20100125 10:50	-3.6	-3.6	-3.6	87	-5.5	3	6	112	0.0	1027.4	83	0.000	0.0
20100125 10:55	-3.6	-3.6	-3.6	87	-5.4	5	8	112	0.0	1027.4	97	0.000	0.0
20100125 11:00	-3.5	-3.5	-3.5	87	-5.3	5	8	135	0.0	1027.4	125	0.025	0.5
20100125 11:05	-3.4	-3.4	-3.4	87	-5.3	5	8	135	0.0	1027.4	129	0.000	0.5
20100125 11:10	-3.3	-3.3	-3.3	87	-5.1	3	6	135	0.0	1027.5	124	0.000	0.5
20100125 11:15	-3.2	-3.2	-3.2	87	-5.1	3	8	135	0.0	1027.5	132	0.000	0.6
20100125 11:20	-3.2	-3.2	-3.2	86	-5.2	3	6	135	0.0	1027.5	134	0.000	0.6
20100125 11:25	-3.1	-3.1	-3.1	86	-5.1	3	6	135	0.0	1027.5	119	0.000	0.6
20100125 11:30	-3.0	-3.0	-3.0	86	-5.0	2	5	135	0.0	1027.3	119	0.000	0.6
20100125 11:35	-2.9	-2.9	-2.9	85	-5.1	3	10	135	0.0	1027.3	126	0.000	0.6
20100125 11:40	-2.8	-2.8	-2.8	85	-5.0	2	5	135	0.0	1027.3	136	0.000	0.6
20100125 11:45	-2.8	-2.8	-2.8	85	-4.9	2	5	135	0.0	1027.2	131	0.000	0.6
20100125 11:50	-2.7	-2.7	-2.7	85	-4.8	3	6	135	0.0	1027.2	116	0.000	0.6
20100125 11:55	-2.6	-2.6	-2.6	85	-4.8	3	8	135	0.0	1027.2	113	0.000	0.6
20100125 12:00	-2.6	-2.6	-2.6	85	-4.7	3	8	135	0.0	1027.2	109	0.051	0.6
20100125 12:05	-2.6	-2.6	-2.6	85	-4.7	3	6	135	0.0	1027.2	112	0.000	0.6
20100125 12:10	-2.5	-2.5	-2.5	85	-4.7	3	6	135	0.0	1027.2	117	0.000	0.6
20100125 12:15	-2.4	-2.4	-2.4	85	-4.6	5	8	135	0.0	1027.1	121	0.000	0.6
20100125 12:20	-2.4	-2.4	-2.4	84	-4.7	3	6	135	0.0	971.2	124	0.000	0.6
20100125 12:25	-2.4	-2.4	-2.4	84	-4.7	3	6	135	0.0	971.2	117	0.000	0.5
20100125 12:30	-2.3	-2.3	-2.3	84	-4.7	2	6	135	0.0	1027.0	119	0.000	0.5
20100125 12:35	-2.3	-2.3	-2.3	84	-4.6	3	10	135	0.0	1027.0	110	0.000	0.5
20100125 12:40	-2.2	-2.2	-2.2	84	-4.6	2	5	112	0.0	1027.0	107	0.000	0.5
20100125 12:45	-2.2	-2.2	-2.2	84	-4.6	3	6	135	0.0	1027.0	99	0.000	0.5
20100125 12:50	-2.2	-2.2	-2.2	84	-4.6	3	6	22	0.0	1027.0	102	0.000	0.5
20100125 12:55	-2.2	-2.2	-2.2	84	-4.5	2	6	45	0.0	1027.0	104	0.000	0.5
20100125 13:00	-2.1	-2.1	-2.1	84	-4.4	3	5	45	0.0	1027.0	118	0.025	0.5
20100125 13:05	-2.1	-2.1	-2.1	84	-4.4	0	5	45	0.0	943.0	105	0.000	0.4
20100125 13:10	-2.1	-2.1	-2.1	84	-4.4	3	6	45	0.0	1027.0	99	0.000	0.0
20100125 13:15	-2.1	-2.1	-2.1	84	-4.4	3	6	45	0.0	1027.0	100	0.000	0.0
20100125 13:20	-2.1	-2.1	-2.1	84	-4.4	3	6	45	0.0	1026.9	110	0.000	0.2
20100125 13:25	-2.1	-2.1	-2.1	84	-4.4	5	8	45	0.0	1026.9	128	0.000	0.5
20100125 13:30	-2.1	-2.1	-2.1	84	-4.4	3	10	45	0.0	1026.9	111	0.000	0.3
20100125 13:35	-2.0	-2.0	-2.0	84	-4.3	5	8	68	0.0	1026.9	91	0.000	0.0
20100125 13:40	-2.0	-4.5	-2.0	84	-4.3	6	10	68	0.0	1026.9	95	0.000	0.0
20100125 13:45	-2.1	-2.1	-2.1	85	-4.2	5	10	68	0.0	1026.8	95	0.000	0.0
20100125 13:50	-2.0	-2.0	-2.0	85	-4.2	5	10	68	0.0	1026.9	91	0.000	0.0
20100125 13:55	-2.0	-2.0	-2.0	85	-4.2	5	10	90	0.0	1026.9	100	0.000	0.0
20100125 14:00	-2.0	-4.5	-2.0	85	-4.2	6	10	68	0.0	1026.9	105	0.025	0.4
20100125 14:05	-2.1	-5.2	-2.1	85	-4.3	8	11	45	0.0	1026.9	99	0.000	0.0
20100125 14:10	-2.2	-4.7	-2.2	86	-4.2	6	11	45	0.0	1027.0	98	0.000	0.0
20100125 14:15	-2.2	-4.7	-2.2	86	-4.2	6	11	45	0.0	1027.0	94	0.000	0.0
20100125 14:20	-2.2	-4.7	-2.2	86	-4.2	6	11	45	0.0	1027.0	81	0.000	0.0
20100125 14:25	-2.3	-2.3	-2.3	86	-4.3	5	10	45	0.0	1027.0	75	0.000	0.0
20100125 14:30	-2.3	-2.3	-2.3	86	-4.3	5	10	45	0.0	971.1	72	0.000	0.0
20100125 14:35	-2.3	-2.3	-2.3	86	-4.3	3	10	45	0.0	1027.1	77	0.000	0.0
20100125 14:40	-2.3	-2.3	-2.3	86	-4.3	3	6	68	0.0	1027.1	75	0.000	0.0
20100125 14:45	-2.3	-2.3	-2.3	85	-4.5	3	6	68	0.0	1027.1	67	0.000	0.0
20100125 14:50	-2.3	-4.8	-2.3	85	-4.5	6	10	68	0.0	1027.1	64	0.000	0.0
20100125 14:55	-2.3	-4.9	-2.3	85	-4.5	6	10	68	0.0	1027.1	65	0.000	0.0
20100125 15:00	-2.3	-4.8	-2.3	86	-4.3	6	10	68	0.0	1027.1	60	0.025	0.0
20100125 15:05	-2.3	-4.9	-2.3	85	-4.5	6	10	68	0.0	1027.1	57	0.000	0.0
20100125 15:10	-2.3	-2.3	-2.3	86	-4.4	5	8	45	0.0	1027.2	53	0.000	0.0
20100125 15:15	-2.3	-2.3	-2.3	86	-4.3	5	10	68	0.0	1027.2	49	0.000	0.0
20100125 15:20	-2.3	-4.8	-2.3	85	-4.5	6	11	68	0.0	1027.2	43	0.000	0.0
20100125 15:25	-2.3	-2.3	-2.3	85	-4.5	5	6	68	0.0	1027.2	34	0.000	0.0
20100125 15:30	-2.4	-4.9	-2.4	85	-4.6	6	8	68	0.0	1027.2	33	0.000	0.0
20100125 15:35	-2.4	-2.4	-2.4	85	-4.6	5	10	45	0.0	1027.2	29	0.000	0.0
20100125 15:40	-2.4	-2.4	-2.4	86	-4.4	5	8	68	0.0	799.8	26	0.000	0.0
20100125 15:45	-2.4	-2.4	-2.4	86	-4.4	5	8	68	0.0	799.8	21	0.000	0.0
20100125 15:50	-2.4	-2.4	-2.4	86	-4.4	3	6	45	0.0	1027.4	18	0.000	0.0
20100125 15:55	-2.4	-2.4	-2.4	86	-4.5	5	10	45	0.0	1027.5	15	0.000	0.0
20100125 16:00	-2.4	-2.4	-2.4	86	-4.5	5	8	45	0.0	1027.5	14	0.025	0.0
20100125 16:05	-2.5	-2.5	-2.5	86	-4.5	5	8	45	0.0	1027.6	12	0.000	0.0
20100125 16:10	-2.5	-5.1	-2.5	86	-4.5	6	10	45	0.0	1027.6	10	0.000	0.0
20100125 16:15	-2.5	-5.1	-2.5	86	-4.5	6	10	68	0.0	1027.6	7	0.000	0.0
20100125 16:20	-2.5	-5.1	-2.5	86	-4.5	6	11	68	0.0	1027.6	5	0.000	0.0
20100125 16:25	-2.6	-5.1	-2.6	86	-4.6	6	11	45	0.0	1027.7	5	0.000	0.0
20100125 16:30	-2.6	-5.8	-2.6	85	-4.8	8	11	45	0.0	1027.9	5	0.000	0.0
20100125 16:35	-2.7	-2.7	-2.7	86	-4.7	5	10	45	0.0	1027.8	2	0.000	0.0
20100125 16:40	-2.7	-5.3	-2.7	86	-4.7	6	10	45	0.0	1027.8	0	0.000	0.0
20100125 16:45	-2.7	-2.7	-2.7	86	-4.7	5	10	45	0.0	1028.0	0	0.000	0.0
20100125 16:50	-2.7	-2.7	-2.7	86	-4.7	5	6	68	0.0	1028.0	0	0.000	0.0
20100125 16:55	-2.7	-5.3	-2.7	86	-4.7	6	10	45	0.0	1028.0	0	0.000	0.0
20100125 17:00	-2.7	-2.7	-2.7	86	-4.7	5	8	45	0.0	800.3	0	0.000	0.0
20100125 17:05	-2.7	-2.7	-2.7	86	-4.7	5	6	45	0.0	800.3	0	0.000	0.0
20100125 17:10	-2.7	-2.7	-2.7	86	-4.7	5	8	45	0.0	1028.2	0	0.000	0.0
20100125 17:15	-2.7	-2.7	-2.7	86	-4.7	3	8	22	0.0	1028.3	0	0.000	0.0
20100125 17:20	-2.7	-2.7	-2.7	86	-4.7	5	8	22	0.0	1028.3	0	0.000	0.0
20100125 17:25	-2.7	-2.7	-2.7	86	-4.7	5	8	22	0.0	1028.3	0	0.000	0.0
20100125 17:30	-2.8	-5.5	-2.8	86	-4.8	6	10	22	0.0	1028.3	0	0.000	0.0
20100125 17:35	-2.8	-5.5	-2.8	86	-4.8	6	11	22	0.0	1028.5	0	0.000	0.0
20100125 17:40	-2.9	-5.5	-2.9	86	-4.9	6	10	22	0.0	1028.7	0	0.000	0.0
20100125 17:45	-2.9	-2.9	-2.9	86	-4.9	5	8	22	0.0	1028.7	0	0.000	0.0
20100125 17:50	-2.8	-2.8	-2.8	86	-4.8	3	8	45	0.0	800.8	0	0.000	0.0
20100125 17:55	-2.9	-5.5	-2.9	86	-4.9	6	10	45	0.0	1028.8	0	0.000	0.0
20100125 18:00	-2.9	-5.5	-2.9	86	-4.9	6	10	22	0.0	1028.8	0	0.000	0.0
20100125 18:05	-2.9	-5.6	-2.9	86	-5.0	6	10	22	0.0	1028.9	0	0.000	0.0
20100125 18:10	-2.9	-2.9	-2.9	86	-5.0	5	10	45	0.0	1028.8	0	0.000	0.0
20100125 18:15	-2.9	-2.9	-2.9	86	-5.0	3	6	45	0.0	1028.8	0	0.000	0.0
20100125 18:20	-2.9	-2.9	-2.9	86	-5.0	5	8	45	0.0	1028.8	0	0.000	0.0
20100125 18:25	-2.9	-2.9	-2.9	86	-5.0	3	5	45	0.0	1028.8	0	0.000	0.0
20100125 18:30	-2.9	-2.9	-2.9	86	-5.0	3	8	45	0.0	1028.9	0	0.000	0.0
20100125 18:35	-2.9	-2.9	-2.9	86	-5.0	3	6	45	0.0	1028.9	0	0.000	0.0
20100125 18:40	-2.9	-2.9	-2.9	86	-5.0	3	6	45	0.0	1029.0	0	0.000	0.0
20100125 18:45	-2.9	-2.9	-2.9	86	-5.0	5	8	45	0.0	1029.0	0	0.000	0.0
20100125 18:50	-2.9	-2.9	-2.9	86	-5.0	5	10	45	0.0	1029.1	0	0.000	0.0
20100125 18:55	-3.0	-3.0	-3.0	86	-5.0	5	8	45	0.0	1029.1	0	0.000	0.0
20100125 19:00	-3.1	-3.1	-3.1	86	-5.1	5	8	45	0.0	1029.0	0	0.000	0.0
20100125 19:05	-3.1	-3.1	-3.1	86	-5.1	5	6	45	0.0	1029.1	0	0.000	0.0
20100125 19:10	-3.1	-3.1	-3.1	86	-5.1	5	8	45	0.0	1029.1	0	0.000	0.0
20100125 19:15	-3.1	-3.1	-3.1	86	-5.1	5	8	45	0.0	1029.2	0	0.000	0.0
20100125 19:20	-3.1	-3.1	-3.1	86	-5.1	5	8	45	0.0	1029.2	0	0.000	0.0
20100125 19:25	-3.0	-3.0	-3.0	86	-5.0	3	6	45	0.0	801.3	0	0.000	0.0
20100125 19:30	-3.1	-3.1	-3.1	86	-5.1	5	8	45	0.0	801.3	0	0.000	0.0
20100125 19:35	-3.1	-3.1	-3.1	87	-4.9	3	6	45	0.0	801.5	0	0.000	0.0
20100125 19:40	-3.1	-3.1	-3.1	87	-4.9	2	3	45	0.0	801.5	0	0.000	0.0
20100125 19:45	-3.1	-3.1	-3.1	87	-4.9	2	5	45	0.0	801.5	0	0.000	0.0
20100125 19:50	-3.1	-3.1	-3.1	87	-4.9	2	5	45	0.0	801.5	0	0.000	0.0
20100125 19:55	-3.0	-3.0	-3.0	87	-4.9	2	3	45	0.0	801.5	0	0.000	0.0
20100125 20:00	-3.0	-3.0	-3.0	87	-4.9	0	2	45	0.0	801.5	0	0.000	0.0
20100125 20:05	-2.9	-2.9	-2.9	87	-4.8	0	0	-100000	0.0	801.5	0	0.000	0.0
20100125 20:10	-2.8	-2.8	-2.8	86	-4.8	0	0	-100000	0.0	801.5	0	0.000	0.0
20100125 20:15	-2.8	-2.8	-2.8	86	-4.8	0	0	-100000	0.0	1029.5	0	0.000	0.0
20100125 20:20	-2.8	-2.8	-2.8	86	-4.8	0	0	-100000	0.0	1029.5	0	0.000	0.0
20100125 20:25	-2.8	-2.8	-2.8	86	-4.8	0	0	-100000	0.0	1029.6	0	0.000	0.0
20100125 20:30	-2.7	-2.7	-2.7	86	-4.7	0	2	45	0.0	1029.6	0	0.000	0.0
20100125 20:35	-2.7	-2.7	-2.7	86	-4.7	0	0	-100000	0.0	1029.6	0	0.000	0.0
20100125 20:40	-2.7	-2.7	-2.7	86	-4.7	0	2	45	0.0	1029.6	0	0.000	0.0
20100125 20:45	-2.7	-2.7	-2.7	86	-4.7	3	5	45	0.0	1029.6	0	0.000	0.0
20100125 20:50	-2.8	-2.8	-2.8	86	-4.8	2	3	45	0.0	1029.6	0	0.000	0.0
20100125 20:55	-2.8	-2.8	-2.8	87	-4.6	2	5	45	0.0	1029.6	0	0.000	0.0
20100125 21:00	-2.8	-2.8	-2.8	87	-4.7	3	6	45	0.0	1029.6	0	0.000	0.0
20100125 21:05	-2.8	-2.8	-2.8	87	-4.7	3	5	45	0.0	1029.6	0	0.000	0.0
20100125 21:10	-2.9	-2.9	-2.9	87	-4.7	2	5	45	0.0	1029.6	0	0.000	0.0
20100125 21:15	-2.9	-2.9	-2.9	87	-4.8	2	5	45	0.0	609.3	0	0.000	0.0
20100125 21:20	-2.9	-2.9	-2.9	87	-4.8	2	5	45	0.0	609.3	0	0.000	0.0
20100125 21:25	-2.9	-2.9	-2.9	87	-4.8	2	5	45	0.0	609.3	0	0.000	0.0
20100125 21:30	-2.9	-2.9	-2.9	87	-4.8	2	5	45	0.0	609.3	0	0.000	0.0
20100125 21:35	-2.9	-2.9	-2.9	87	-4.8	3	6	45	0.0	609.3	0	0.000	0.0
20100125 21:40	-3.0	-3.0	-3.0	87	-4.9	3	6	45	0.0	609.3	0	0.000	0.0
20100125 21:45	-3.0	-3.0	-3.0	88	-4.7	2	5	45	0.0	609.3	0	0.000	0.0
20100125 21:50	-3.0	-3.0	-3.0	88	-4.7	2	3	45	0.0	609.3	0	0.000	0.0
20100125 21:55	-3.0	-3.0	-3.0	88	-4.7	3	5	45	0.0	609.3	0	0.000	0.0
20100125 22:00	-3.0	-3.0	-3.0	88	-4.7	2	5	45	0.0	609.3	0	0.000	0.0
20100125 22:05	-3.0	-3.0	-3.0	88	-4.7	2	5	45	0.0	609.3	0	0.000	0.0
20100125 22:10	-3.1	-3.1	-3.1	88	-4.8	2	3	45	0.0	609.3	0	0.000	0.0
20100125 22:15	-3.1	-3.1	-3.1	88	-4.8	0	2	45	0.0	609.3	0	0.000	0.0
20100125 22:20	-3.1	-3.1	-3.1	88	-4.8	0	3	45	0.0	609.3	0	0.000	0.0
20100125 22:25	-3.0	-3.0	-3.0	88	-4.7	2	3	45	0.0	772.8	0	0.000	0.0
20100125 22:30	-3.0	-3.0	-3.0	88	-4.7	5	8	45	0.0	772.8	0	0.000	0.0
20100125 22:35	-3.1	-5.8	-3.1	88	-4.8	6	8	45	0.0	772.8	0	0.000	0.0
20100125 22:40	-3.2	-3.2	-3.2	88	-4.9	5	8	45	0.0	772.8	0	0.000	0.0
20100125 22:45	-3.2	-3.2	-3.2	88	-4.9	5	6	45	0.0	772.8	0	0.000	0.0
20100125 22:50	-3.2	-3.2	-3.2	88	-4.9	5	8	45	0.0	772.8	0	0.000	0.0
20100125 22:55	-3.2	-3.2	-3.2	88	-4.9	3	6	45	0.0	772.8	0	0.000	0.0
20100125 23:00	-3.2	-3.2	-3.2	88	-4.9	3	5	45	0.0	772.8	0	0.000	0.0
20100125 23:05	-3.2	-3.2	-3.2	88	-4.9	3	5	45	0.0	772.8	0	0.000	0.0
20100125 23:10	-3.2	-3.2	-3.2	88	-4.9	3	6	45	0.0	772.8	0	0.000	0.0
20100125 23:15	-3.2	-3.2	-3.2	88	-4.9	2	5	45	0.0	772.8	0	0.000	0.0
20100125 23:20	-3.2	-3.2	-3.2	88	-4.9	0	2	45	0.0	772.8	0	0.000	0.0
20100125 23:25	-3.2	-3.2	-3.2	88	-4.9	3	5	45	0.0	1030.3	0	0.000	0.0
20100125 23:30	-3.2	-3.2	-3.2	88	-4.9	0	2	45	0.0	1030.3	0	0.000	0.0
20100125 23:35	-3.2	-3.2	-3.2	88	-4.9	0	0	-100000	0.0	1030.3	0	0.000	0.0
20100125 23:40	-3.1	-3.1	-3.1	88	-4.8	0	0	-100000	0.0	802.0	0	0.000	0.0
20100125 23:45	-3.1	-3.1	-3.1	88	-4.8	0	0	-100000	0.0	801.9	0	0.000	0.0
20100125 23:50	-3.0	-3.0	-3.0	87	-4.9	0	0	-100000	0.0	801.9	0	0.000	0.0
20100125 23:55	-3.0	-3.0	-3.0	87	-4.9	0	0	-100000	0.0	802.0	0	0.000	0.0



Please note the license to use and transfer of this data:
http://creativecommons.org/licenses/by-nc-sa/3.0/deed.en

Bitte beachten sie die Lizenz zur Verwertung und Weitergabe der Daten:
http://creativecommons.org/licenses/by-nc-sa/3.0/deed.de

zurück zur Übersicht der Archivdaten (Monats und Tagesdaten)

Cookies helfen bei der Bereitstellung von Inhalten. Durch die Nutzung dieser Seiten erklärst du dich damit einverstanden, dass Cookies auf deinem Rechner gespeichert werden. Weitere Information